createdAt,value
2023-01-30T00:01:21.372Z,85.38
2023-01-30T00:03:01.506Z,85.55
2023-01-30T00:04:41.680Z,85.42
2023-01-30T00:06:21.791Z,85.5
2023-01-30T00:08:01.948Z,85.7
2023-01-30T00:09:42.075Z,85.74
2023-01-30T00:11:22.219Z,85.81
2023-01-30T00:13:02.365Z,85.69
2023-01-30T00:14:42.502Z,85.86
2023-01-30T00:16:22.763Z,85.87
2023-01-30T00:18:02.849Z,85.86
2023-01-30T00:19:42.991Z,85.82
2023-01-30T00:21:23.190Z,85.61
2023-01-30T00:23:03.355Z,85.86
2023-01-30T00:24:43.637Z,85.8
2023-01-30T00:26:23.714Z,85.82
2023-01-30T00:28:03.816Z,85.9
2023-01-30T00:29:47.368Z,85.91
2023-01-30T00:31:24.196Z,86.08
2023-01-30T00:33:04.282Z,86.22
2023-01-30T00:34:44.419Z,86.31
2023-01-30T00:36:24.550Z,86.26
2023-01-30T00:38:04.695Z,86.41
2023-01-30T00:39:44.930Z,86.57
2023-01-30T00:41:25.076Z,86.46
2023-01-30T00:43:05.211Z,86.45
2023-01-30T00:44:45.370Z,86.42
2023-01-30T00:46:25.500Z,86.44
2023-01-30T00:48:05.649Z,86.38
2023-01-30T00:49:45.820Z,86.4
2023-01-30T00:51:25.888Z,86.36
2023-01-30T00:53:06.047Z,86.4
2023-01-30T00:54:46.194Z,86.34
2023-01-30T00:56:26.324Z,86.31
2023-01-30T00:58:06.482Z,86.42
2023-01-30T00:59:47.232Z,86.3
2023-01-30T01:01:26.765Z,86.76
2023-01-30T01:03:07.011Z,87.14
2023-01-30T01:04:47.072Z,87.25
2023-01-30T01:06:27.241Z,87.28
2023-01-30T01:08:07.399Z,87.51
2023-01-30T01:09:47.563Z,87.26
2023-01-30T01:11:27.728Z,87.09
2023-01-30T01:13:07.855Z,87.09
2023-01-30T01:14:47.984Z,87.19
2023-01-30T01:16:28.302Z,86.81
2023-01-30T01:18:08.418Z,86.67
2023-01-30T01:19:48.562Z,86.37
2023-01-30T01:21:28.775Z,86.31
2023-01-30T01:23:08.969Z,86.43
2023-01-30T01:24:49.112Z,86.58
2023-01-30T01:26:29.285Z,86.22
2023-01-30T01:28:09.375Z,86.12
2023-01-30T01:29:49.564Z,86.11
2023-01-30T01:31:29.879Z,86.17
2023-01-30T01:33:09.827Z,86.12
2023-01-30T01:34:50.017Z,86.34
2023-01-30T01:38:10.308Z,86.25
2023-01-30T01:39:50.434Z,86.33
2023-01-30T01:41:30.557Z,86.17
2023-01-30T01:43:10.719Z,86.28
2023-01-30T01:44:50.843Z,86.2
2023-01-30T01:46:31.046Z,86.18
2023-01-30T01:48:11.190Z,86.07
2023-01-30T01:49:51.325Z,86.07
2023-01-30T01:51:31.460Z,85.96
2023-01-30T01:53:11.608Z,86.09
2023-01-30T01:54:51.798Z,85.92
2023-01-30T01:56:31.967Z,85.73
2023-01-30T01:58:12.143Z,85.75
2023-01-30T01:59:52.252Z,85.73
2023-01-30T02:01:32.394Z,85.95
2023-01-30T02:03:12.523Z,86.07
2023-01-30T02:04:52.695Z,86.36
2023-01-30T02:06:32.876Z,86.55
2023-01-30T02:08:13.016Z,86.96
2023-01-30T02:09:53.153Z,87.37
2023-01-30T02:11:33.294Z,87.63
2023-01-30T02:13:13.467Z,87.68
2023-01-30T02:14:53.644Z,87.95
2023-01-30T02:16:33.828Z,88.34
2023-01-30T02:18:13.996Z,88.57
2023-01-30T02:19:54.171Z,88.85
2023-01-30T02:21:34.292Z,89.08
2023-01-30T02:23:14.454Z,89.25
2023-01-30T02:24:54.666Z,89.44
2023-01-30T02:26:34.830Z,89.91
2023-01-30T02:28:14.948Z,90.51
2023-01-30T02:29:55.102Z,90.9
2023-01-30T02:31:35.482Z,91.23
2023-01-30T02:33:15.420Z,91.46
2023-01-30T02:34:55.555Z,91.36
2023-01-30T02:36:35.729Z,91.58
2023-01-30T02:38:15.859Z,91.77
2023-01-30T02:39:55.974Z,92.26
2023-01-30T02:41:36.122Z,91.88
2023-01-30T02:43:16.294Z,92.06
2023-01-30T02:44:56.421Z,92.33
2023-01-30T02:46:36.565Z,92.87
2023-01-30T02:48:16.665Z,93.16
2023-01-30T02:49:56.827Z,93.04
2023-01-30T02:51:36.943Z,93.25
2023-01-30T02:53:17.140Z,93.35
2023-01-30T02:54:57.293Z,93.61
2023-01-30T02:56:37.445Z,93.8
2023-01-30T02:58:17.635Z,93.98
2023-01-30T02:59:57.740Z,93.87
2023-01-30T03:01:37.973Z,93.96
2023-01-30T03:03:18.009Z,94.09
2023-01-30T03:04:58.207Z,94.2
2023-01-30T03:06:38.321Z,94.39
2023-01-30T03:08:18.466Z,94.35
2023-01-30T03:09:58.593Z,94.39
2023-01-30T03:11:38.754Z,94.62
2023-01-30T03:13:18.963Z,94.67
2023-01-30T03:14:59.137Z,94.62
2023-01-30T03:16:39.374Z,94.67
2023-01-30T03:18:19.469Z,94.81
2023-01-30T03:19:59.609Z,94.89
2023-01-30T03:21:39.755Z,94.79
2023-01-30T03:23:19.920Z,94.63
2023-01-30T03:25:00.093Z,94.45
2023-01-30T03:26:40.305Z,94.37
2023-01-30T03:28:20.395Z,94.37
2023-01-30T03:30:00.561Z,94.44
2023-01-30T03:31:40.793Z,94.28
2023-01-30T03:33:20.802Z,94.12
2023-01-30T03:35:00.941Z,93.74
2023-01-30T03:36:41.101Z,93.27
2023-01-30T03:38:21.251Z,93.09
2023-01-30T03:40:01.404Z,93.18
2023-01-30T03:41:41.524Z,93.28
2023-01-30T03:43:21.675Z,93.42
2023-01-30T03:45:01.782Z,93.59
2023-01-30T03:46:41.935Z,93.8
2023-01-30T03:48:22.146Z,94.12
2023-01-30T03:50:02.214Z,94.44
2023-01-30T03:51:42.348Z,94.6
2023-01-30T03:53:22.565Z,94.52
2023-01-30T03:55:02.680Z,94.67
2023-01-30T03:56:42.835Z,94.96
2023-01-30T03:58:22.995Z,94.93
2023-01-30T04:00:03.169Z,95
2023-01-30T04:01:43.341Z,95.76
2023-01-30T04:03:23.483Z,95.79
2023-01-30T04:05:03.628Z,95.74
2023-01-30T04:06:43.738Z,95.74
2023-01-30T04:08:23.903Z,95.83
2023-01-30T04:10:04.102Z,96.08
2023-01-30T04:11:44.227Z,97.16
2023-01-30T04:13:24.375Z,97.43
2023-01-30T04:15:04.521Z,97.58
2023-01-30T04:16:44.733Z,97.89
2023-01-30T04:18:24.916Z,97.81
2023-01-30T04:20:05.052Z,97.72
2023-01-30T04:21:45.194Z,97.41
2023-01-30T04:23:25.322Z,97.17
2023-01-30T04:25:05.483Z,96.88
2023-01-30T04:26:45.843Z,96.74
2023-01-30T04:28:25.809Z,96.22
2023-01-30T04:30:05.995Z,95.94
2023-01-30T04:31:46.214Z,96.09
2023-01-30T04:33:26.307Z,96.26
2023-01-30T04:35:06.544Z,96.07
2023-01-30T04:36:46.677Z,96.01
2023-01-30T04:38:26.840Z,95.81
2023-01-30T04:40:07.006Z,95.81
2023-01-30T04:41:47.168Z,95.83
2023-01-30T04:43:27.299Z,95.81
2023-01-30T04:45:07.499Z,95.78
2023-01-30T04:46:47.622Z,95.39
2023-01-30T04:48:27.787Z,95.35
2023-01-30T04:50:07.908Z,95.37
2023-01-30T04:51:48.053Z,95.6
2023-01-30T04:53:28.197Z,95.63
2023-01-30T04:55:08.363Z,95.52
2023-01-30T04:56:48.534Z,95.71
2023-01-30T04:58:36.093Z,95.79
2023-01-30T05:00:16.209Z,95.87
2023-01-30T05:01:56.447Z,95.96
2023-01-30T05:03:36.567Z,96.03
2023-01-30T05:05:17.153Z,96.01
2023-01-30T05:06:56.889Z,96.04
2023-01-30T05:08:37.053Z,95.89
2023-01-30T05:10:17.161Z,95.86
2023-01-30T05:11:57.320Z,95.96
2023-01-30T05:13:37.535Z,96.03
2023-01-30T05:15:17.995Z,96.03
2023-01-30T05:16:57.892Z,95.91
2023-01-30T05:18:38.001Z,95.68
2023-01-30T05:20:18.117Z,95.58
2023-01-30T05:21:58.250Z,95.65
2023-01-30T05:23:38.393Z,95.73
2023-01-30T05:25:18.918Z,95.77
2023-01-30T05:26:58.728Z,95.84
2023-01-30T05:28:38.897Z,95.81
2023-01-30T05:30:19.127Z,95.81
2023-01-30T05:31:59.214Z,95.86
2023-01-30T05:33:39.409Z,95.96
2023-01-30T05:35:19.955Z,96.08
2023-01-30T05:36:59.744Z,96.09
2023-01-30T05:38:39.899Z,95.98
2023-01-30T05:40:20.000Z,95.98
2023-01-30T05:42:00.166Z,95.96
2023-01-30T05:43:40.273Z,95.94
2023-01-30T05:45:20.694Z,96.02
2023-01-30T05:47:00.625Z,96.16
2023-01-30T05:48:40.739Z,96.33
2023-01-30T05:50:20.901Z,96.35
2023-01-30T05:52:01.096Z,96.24
2023-01-30T05:53:41.266Z,96.01
2023-01-30T05:55:21.457Z,95.97
2023-01-30T05:57:01.586Z,95.97
2023-01-30T05:58:41.685Z,96.01
2023-01-30T06:00:21.862Z,95.96
2023-01-30T06:02:02.006Z,95.88
2023-01-30T06:03:42.201Z,95.73
2023-01-30T06:05:22.360Z,95.7
2023-01-30T06:07:02.412Z,95.49
2023-01-30T06:08:42.538Z,95.43
2023-01-30T06:10:22.724Z,95.45
2023-01-30T06:12:02.844Z,95.48
2023-01-30T06:13:43.019Z,95.5
2023-01-30T06:15:23.148Z,95.48
2023-01-30T06:17:03.429Z,95.55
2023-01-30T06:18:43.544Z,95.65
2023-01-30T06:20:23.672Z,95.78
2023-01-30T06:22:03.857Z,95.85
2023-01-30T06:23:44.037Z,95.92
2023-01-30T06:25:24.119Z,95.91
2023-01-30T06:27:04.254Z,95.99
2023-01-30T06:28:44.431Z,95.88
2023-01-30T06:30:24.676Z,95.8
2023-01-30T06:32:04.772Z,95.89
2023-01-30T06:33:44.934Z,95.88
2023-01-30T06:35:25.068Z,95.7
2023-01-30T06:37:05.203Z,95.61
2023-01-30T06:38:45.316Z,95.46
2023-01-30T06:40:25.461Z,95.59
2023-01-30T06:42:05.643Z,95.49
2023-01-30T06:43:45.732Z,95.54
2023-01-30T06:45:25.887Z,95.62
2023-01-30T06:47:06.068Z,95.59
2023-01-30T06:48:46.184Z,95.52
2023-01-30T06:50:26.307Z,95.5
2023-01-30T06:52:06.466Z,95.55
2023-01-30T06:53:46.601Z,95.61
2023-01-30T06:55:26.792Z,95.74
2023-01-30T06:57:06.978Z,95.75
2023-01-30T06:58:47.116Z,95.9
2023-01-30T07:00:27.258Z,95.97
2023-01-30T07:02:07.455Z,96.11
2023-01-30T07:03:47.590Z,96.01
2023-01-30T07:05:27.721Z,96.03
2023-01-30T07:07:07.844Z,96.15
2023-01-30T07:08:48.051Z,96.1
2023-01-30T07:10:28.192Z,96.03
2023-01-30T07:12:08.336Z,95.88
2023-01-30T07:13:48.462Z,95.87
2023-01-30T07:15:28.579Z,95.84
2023-01-30T07:17:08.796Z,95.78
2023-01-30T07:18:48.965Z,95.85
2023-01-30T07:20:29.144Z,95.72
2023-01-30T07:22:09.234Z,95.48
2023-01-30T07:23:49.482Z,95.28
2023-01-30T07:25:29.552Z,95.17
2023-01-30T07:27:09.686Z,95.05
2023-01-30T07:28:49.927Z,94.63
2023-01-30T07:30:30.185Z,94.74
2023-01-30T07:32:10.220Z,94.72
2023-01-30T07:33:50.428Z,94.42
2023-01-30T07:35:30.623Z,93.81
2023-01-30T07:37:10.810Z,93.75
2023-01-30T07:38:50.966Z,93.62
2023-01-30T07:40:31.159Z,93.64
2023-01-30T07:42:11.315Z,93.43
2023-01-30T07:43:51.445Z,92.98
2023-01-30T07:45:31.629Z,93.17
2023-01-30T07:47:11.919Z,93.39
2023-01-30T07:48:51.972Z,93.1
2023-01-30T07:50:32.123Z,92.97
2023-01-30T07:52:12.270Z,92.76
2023-01-30T07:53:52.466Z,92.59
2023-01-30T07:55:32.572Z,92.56
2023-01-30T07:57:12.702Z,92.39
2023-01-30T07:58:52.841Z,92.22
2023-01-30T08:00:32.954Z,92.23
2023-01-30T08:02:13.117Z,92.06
2023-01-30T08:03:53.264Z,91.87
2023-01-30T08:05:33.393Z,91.99
2023-01-30T08:07:13.559Z,92.03
2023-01-30T08:08:53.716Z,91.78
2023-01-30T08:10:33.899Z,92.06
2023-01-30T08:12:14.099Z,92.08
2023-01-30T08:13:54.197Z,92.23
2023-01-30T08:15:34.363Z,92.23
2023-01-30T08:17:14.758Z,92.33
2023-01-30T08:18:54.679Z,92.47
2023-01-30T08:20:34.812Z,92.22
2023-01-30T08:22:14.942Z,92.41
2023-01-30T08:23:55.115Z,92.35
2023-01-30T08:25:35.302Z,92.42
2023-01-30T08:27:15.458Z,92.14
2023-01-30T08:28:55.593Z,92.29
2023-01-30T08:30:35.843Z,92.15
2023-01-30T08:32:16.085Z,92.09
2023-01-30T08:33:56.037Z,91.92
2023-01-30T08:35:36.194Z,91.84
2023-01-30T08:37:16.305Z,92.11
2023-01-30T08:38:56.444Z,92.04
2023-01-30T08:40:36.565Z,91.9
2023-01-30T08:42:16.743Z,91.51
2023-01-30T08:43:56.839Z,91.62
2023-01-30T08:45:37.010Z,91.54
2023-01-30T08:47:17.189Z,91.65
2023-01-30T08:48:57.521Z,91.34
2023-01-30T08:50:37.781Z,91.26
2023-01-30T08:52:18.036Z,91.17
2023-01-30T08:53:58.320Z,91.17
2023-01-30T08:55:38.606Z,91.35
2023-01-30T08:57:18.840Z,91.22
2023-01-30T08:58:59.112Z,91.34
2023-01-30T09:00:39.361Z,91.01
2023-01-30T09:02:19.638Z,90.42
2023-01-30T09:03:59.904Z,90
2023-01-30T09:05:40.105Z,90.09
2023-01-30T09:07:20.364Z,90.06
2023-01-30T09:09:00.596Z,89.68
2023-01-30T09:10:40.924Z,89.34
2023-01-30T09:12:21.092Z,89.24
2023-01-30T09:14:01.367Z,89.2
2023-01-30T09:15:41.592Z,88.17
2023-01-30T09:17:21.891Z,87.75
2023-01-30T09:19:02.200Z,87.6
2023-01-30T09:20:42.499Z,87.25
2023-01-30T09:22:22.701Z,87.06
2023-01-30T09:24:02.946Z,86.74
2023-01-30T09:25:43.207Z,86.52
2023-01-30T09:27:23.530Z,85.44
2023-01-30T09:29:03.811Z,83.98
2023-01-30T09:30:44.201Z,83.48
2023-01-30T09:32:25.759Z,82.69
2023-01-30T09:32:25.778Z,82.69
2023-01-30T09:32:25.791Z,82.69
2023-01-30T09:32:25.797Z,82.69
2023-01-30T09:32:25.801Z,82.69
2023-01-30T09:32:25.806Z,82.69
2023-01-30T09:34:04.612Z,82.39
2023-01-30T09:35:44.906Z,82.16
2023-01-30T09:37:25.131Z,81.33
2023-01-30T09:39:05.428Z,80.12
2023-01-30T09:40:45.731Z,80.22
2023-01-30T09:42:25.998Z,80.41
2023-01-30T09:44:06.171Z,79.29
2023-01-30T09:45:46.449Z,79.56
2023-01-30T09:47:26.616Z,78.65
2023-01-30T09:49:06.900Z,78.23
2023-01-30T09:50:47.428Z,78.15
2023-01-30T09:52:27.467Z,76.8
2023-01-30T09:54:07.698Z,76.27
2023-01-30T09:55:48.049Z,76.12
2023-01-30T09:57:28.272Z,76.81
2023-01-30T09:59:08.600Z,76.92
2023-01-30T10:00:48.844Z,75.83
2023-01-30T10:02:29.099Z,76.39
2023-01-30T10:04:09.438Z,76.49
2023-01-30T10:05:49.700Z,76.9
2023-01-30T10:07:30.018Z,75.71
2023-01-30T10:09:10.167Z,75.41
2023-01-30T10:11:00.766Z,75.39
2023-01-30T10:12:30.491Z,75.84
2023-01-30T10:14:10.680Z,76.28
2023-01-30T10:15:50.833Z,76.61
2023-01-30T10:17:32.734Z,75.65
2023-01-30T10:19:11.164Z,77.03
2023-01-30T10:20:51.317Z,77.64
2023-01-30T10:22:31.529Z,78.1
2023-01-30T10:24:11.725Z,78.14
2023-01-30T10:25:52.068Z,78.27
2023-01-30T10:27:32.396Z,78.66
2023-01-30T10:32:11.572Z,78.21
2023-01-30T10:33:51.748Z,78.13
2023-01-30T10:35:31.980Z,78.99
2023-01-30T10:37:12.053Z,79.15
2023-01-30T10:38:52.286Z,79.34
2023-01-30T10:40:32.464Z,79.25
2023-01-30T10:42:12.590Z,79.12
2023-01-30T10:43:52.697Z,78.69
2023-01-30T10:45:33.250Z,78.77
2023-01-30T10:47:13.004Z,78.57
2023-01-30T10:48:53.111Z,77.55
2023-01-30T10:50:33.271Z,77.42
2023-01-30T10:52:13.410Z,77.76
2023-01-30T10:53:53.602Z,77.79
2023-01-30T10:55:37.705Z,78.47
2023-01-30T10:57:13.942Z,78.84
2023-01-30T10:58:54.132Z,78.64
2023-01-30T11:00:34.273Z,80.23
2023-01-30T11:02:14.391Z,79.22
2023-01-30T11:03:54.562Z,80.05
2023-01-30T11:05:34.715Z,78.75
2023-01-30T11:07:14.838Z,77.21
2023-01-30T11:08:59.852Z,79.68
2023-01-30T11:10:39.991Z,77.15
2023-01-30T11:12:20.134Z,77.1
2023-01-30T11:14:00.270Z,75.86
2023-01-30T11:15:40.420Z,74.87
2023-01-30T11:17:20.578Z,75.4
2023-01-30T11:20:40.865Z,75.46
2023-01-30T11:22:21.015Z,75.91
2023-01-30T11:24:01.187Z,74.7
2023-01-30T11:25:41.316Z,75.33
2023-01-30T11:27:21.537Z,74.56
2023-01-30T11:29:01.721Z,75.3
2023-01-30T11:30:41.845Z,74.05
2023-01-30T11:32:22.178Z,74.75
2023-01-30T11:34:02.243Z,74.29
2023-01-30T11:35:42.383Z,73.71
2023-01-30T11:37:22.521Z,73.79
2023-01-30T11:39:02.718Z,74.4
2023-01-30T11:40:42.882Z,74.22
2023-01-30T11:42:23.028Z,74.51
2023-01-30T11:44:03.296Z,74.22
2023-01-30T11:45:43.468Z,75.38
2023-01-30T11:47:23.518Z,74.71
2023-01-30T11:49:44.857Z,74.16
2023-01-30T11:50:45.516Z,73.83
2023-01-30T11:52:24.043Z,74.18
2023-01-30T11:54:04.216Z,74.49
2023-01-30T11:56:00.210Z,72.39
2023-01-30T11:57:24.534Z,72.35
2023-01-30T11:59:04.728Z,73.55
2023-01-30T12:00:44.859Z,73.8
2023-01-30T12:02:25.128Z,73.68
2023-01-30T12:04:05.166Z,72.51
2023-01-30T12:05:45.308Z,72.8
2023-01-30T12:07:25.410Z,73.08
2023-01-30T12:09:05.576Z,73.16
2023-01-30T12:10:45.776Z,72.62
2023-01-30T12:12:25.903Z,73.02
2023-01-30T12:14:06.064Z,73.04
2023-01-30T12:15:46.220Z,73.57
2023-01-30T12:17:26.485Z,72.92
2023-01-30T12:19:06.755Z,73.33
2023-01-30T12:20:47.074Z,72.83
2023-01-30T12:22:27.384Z,72.21
2023-01-30T12:24:07.708Z,71.92
2023-01-30T12:25:47.945Z,71.61
2023-01-30T12:27:28.265Z,71.06
2023-01-30T12:29:15.454Z,71.53
2023-01-30T12:30:53.649Z,71.39
2023-01-30T12:32:33.836Z,71.64
2023-01-30T12:34:14.059Z,71.31
2023-01-30T12:35:54.318Z,72.21
2023-01-30T12:37:34.579Z,71.03
2023-01-30T12:39:14.697Z,70.67
2023-01-30T12:40:54.854Z,70.64
2023-01-30T12:42:35.047Z,69.44
2023-01-30T12:44:15.186Z,69.82
2023-01-30T12:45:55.422Z,69.82
2023-01-30T12:47:35.536Z,70.35
2023-01-30T12:49:15.764Z,69.77
2023-01-30T12:50:55.913Z,70.46
2023-01-30T12:52:36.116Z,71.04
2023-01-30T12:54:16.272Z,71.16
2023-01-30T12:55:56.412Z,71.5
2023-01-30T12:57:36.549Z,71.93
2023-01-30T12:59:16.694Z,72.72
2023-01-30T13:00:56.868Z,72.54
2023-01-30T13:02:37.032Z,71.4
2023-01-30T13:04:17.146Z,72.03
2023-01-30T13:05:57.310Z,72.84
2023-01-30T13:07:37.420Z,72.58
2023-01-30T13:09:17.633Z,73.34
2023-01-30T13:10:57.779Z,73.49
2023-01-30T13:12:38.007Z,73.53
2023-01-30T13:14:18.113Z,73.54
2023-01-30T13:15:58.291Z,73.85
2023-01-30T13:17:38.408Z,73.76
2023-01-30T13:19:20.887Z,75.04
2023-01-30T13:21:00.420Z,74.95
2023-01-30T13:22:38.788Z,75.07
2023-01-30T13:24:18.977Z,75.57
2023-01-30T13:25:59.149Z,76.09
2023-01-30T13:27:39.303Z,76.36
2023-01-30T13:29:19.459Z,76.44
2023-01-30T13:30:59.721Z,77.43
2023-01-30T13:32:39.867Z,78.76
2023-01-30T13:34:20.032Z,80.52
2023-01-30T13:36:00.212Z,81.68
2023-01-30T13:37:40.370Z,82.81
2023-01-30T13:39:20.557Z,83.65
2023-01-30T13:41:00.676Z,83.52
2023-01-30T13:42:40.826Z,85.53
2023-01-30T13:44:21.075Z,87.5
2023-01-30T13:46:01.255Z,88.37
2023-01-30T13:47:41.433Z,88.95
2023-01-30T13:49:21.568Z,89.24
2023-01-30T13:51:01.736Z,89.87
2023-01-30T13:52:41.877Z,89.56
2023-01-30T13:54:22.045Z,90.01
2023-01-30T13:56:02.221Z,90.23
2023-01-30T13:57:42.342Z,90.46
2023-01-30T13:59:22.584Z,90.49
2023-01-30T14:01:02.758Z,90.48
2023-01-30T14:02:42.887Z,90.84
2023-01-30T14:04:23.039Z,91.41
2023-01-30T14:06:03.232Z,89.81
2023-01-30T14:07:43.360Z,89.26
2023-01-30T14:09:23.548Z,89.23
2023-01-30T14:11:03.660Z,88.43
2023-01-30T14:12:43.865Z,87.95
2023-01-30T14:14:23.991Z,87.04
2023-01-30T14:16:04.433Z,87.29
2023-01-30T14:17:44.261Z,86.88
2023-01-30T14:19:24.454Z,86.05
2023-01-30T14:21:04.591Z,86.99
2023-01-30T14:22:44.728Z,87.16
2023-01-30T14:24:24.935Z,87.23
2023-01-30T14:26:05.093Z,86.58
2023-01-30T14:27:45.244Z,87.05
2023-01-30T14:29:25.379Z,86.79
2023-01-30T14:31:05.722Z,86.87
2023-01-30T14:32:45.971Z,86.69
2023-01-30T14:34:25.959Z,86.79
2023-01-30T14:36:06.126Z,87.18
2023-01-30T14:37:46.282Z,87.21
2023-01-30T14:39:26.427Z,87.53
2023-01-30T14:41:06.562Z,87.77
2023-01-30T14:42:46.726Z,88.37
2023-01-30T14:44:27.017Z,88.7
2023-01-30T14:46:08.648Z,88.51
2023-01-30T14:47:49.562Z,88.81
2023-01-30T14:49:30.499Z,89.46
2023-01-30T14:51:07.586Z,89.47
2023-01-30T14:52:47.738Z,89.64
2023-01-30T14:54:40.245Z,89.63
2023-01-30T14:56:08.040Z,89.6
2023-01-30T14:57:48.202Z,89.54
2023-01-30T14:59:28.335Z,89.32
2023-01-30T15:01:08.562Z,89.57
2023-01-30T15:02:48.686Z,89.11
2023-01-30T15:04:28.794Z,88.41
2023-01-30T15:06:09.008Z,88.74
2023-01-30T15:07:49.141Z,88.66
2023-01-30T15:09:29.267Z,88.09
2023-01-30T15:11:12.473Z,88.4
2023-01-30T15:12:49.606Z,87.95
2023-01-30T15:14:29.700Z,86.81
2023-01-30T15:16:09.866Z,86.66
2023-01-30T15:17:58.250Z,86.69
2023-01-30T15:19:30.162Z,86.79
2023-01-30T15:21:10.306Z,86.27
2023-01-30T15:22:50.475Z,85.96
2023-01-30T15:24:30.658Z,86.28
2023-01-30T15:26:10.965Z,85.59
2023-01-30T15:27:51.036Z,85.04
2023-01-30T15:29:31.175Z,84.68
2023-01-30T15:31:11.334Z,84.26
2023-01-30T15:32:51.468Z,84.64
2023-01-30T15:34:31.646Z,83.93
2023-01-30T15:36:11.802Z,83.77
2023-01-30T15:37:51.975Z,83.67
2023-01-30T15:39:32.113Z,82.51
2023-01-30T15:41:12.304Z,82.04
2023-01-30T15:42:52.395Z,82.5
2023-01-30T15:44:32.592Z,82.78
2023-01-30T15:46:12.792Z,82.8
2023-01-30T15:47:52.874Z,82.65
2023-01-30T15:49:33.032Z,81.97
2023-01-30T15:51:13.212Z,82.44
2023-01-30T15:52:53.318Z,82.4
2023-01-30T15:54:33.553Z,82.1
2023-01-30T15:56:13.693Z,81.99
2023-01-30T15:57:53.851Z,82.34
2023-01-30T15:59:34.015Z,82.24
2023-01-30T16:01:14.327Z,82.22
2023-01-30T16:03:01.401Z,82.26
2023-01-30T16:04:34.482Z,82.98
2023-01-30T16:06:14.664Z,82.33
2023-01-30T16:07:54.830Z,82.37
2023-01-30T16:09:34.960Z,81.74
2023-01-30T16:11:15.103Z,82.36
2023-01-30T16:12:55.220Z,82.89
2023-01-30T16:14:35.319Z,82.54
2023-01-30T16:16:15.512Z,82.99
2023-01-30T16:17:55.750Z,83.27
2023-01-30T16:19:35.853Z,82.77
2023-01-30T16:21:15.969Z,83.28
2023-01-30T16:22:56.135Z,83.29
2023-01-30T16:24:36.312Z,83.67
2023-01-30T16:26:16.499Z,84.02
2023-01-30T16:27:56.656Z,83.86
2023-01-30T16:29:36.784Z,84.3
2023-01-30T16:31:17.126Z,84.72
2023-01-30T16:32:57.089Z,85.19
2023-01-30T16:34:37.271Z,85.36
2023-01-30T16:36:17.460Z,85.53
2023-01-30T16:37:57.567Z,85.77
2023-01-30T16:39:37.755Z,86.39
2023-01-30T16:41:17.961Z,86.19
2023-01-30T16:42:58.085Z,86.49
2023-01-30T16:44:38.278Z,86.43
2023-01-30T16:46:18.446Z,86.65
2023-01-30T16:47:58.572Z,86.72
2023-01-30T16:49:38.683Z,86.92
2023-01-30T16:51:21.912Z,86.95
2023-01-30T16:52:58.978Z,87.11
2023-01-30T16:54:39.148Z,87.37
2023-01-30T16:56:22.360Z,87.14
2023-01-30T16:57:59.472Z,87.01
2023-01-30T16:59:39.585Z,86.92
2023-01-30T17:01:19.922Z,86.78
2023-01-30T17:02:59.931Z,86.76
2023-01-30T17:04:40.102Z,86.65
2023-01-30T17:06:20.254Z,86.78
2023-01-30T17:08:00.398Z,86.83
2023-01-30T17:09:40.578Z,86.12
2023-01-30T17:11:20.795Z,86.2
2023-01-30T17:13:00.927Z,86.08
2023-01-30T17:14:41.066Z,85.78
2023-01-30T17:16:21.244Z,85.87
2023-01-30T17:18:01.354Z,84.97
2023-01-30T17:19:41.465Z,84.93
2023-01-30T17:21:21.655Z,84.99
2023-01-30T17:23:01.751Z,85.25
2023-01-30T17:24:41.887Z,85.27
2023-01-30T17:26:22.122Z,85.17
2023-01-30T17:28:02.302Z,85.21
2023-01-30T17:29:43.725Z,85.74
2023-01-30T17:31:22.809Z,85.77
2023-01-30T17:33:02.785Z,85.59
2023-01-30T17:34:42.926Z,85.89
2023-01-30T17:36:24.257Z,85.53
2023-01-30T17:38:05.909Z,85.47
2023-01-30T17:39:43.357Z,85.18
2023-01-30T17:41:23.536Z,85.31
2023-01-30T17:43:03.692Z,85.36
2023-01-30T17:44:43.872Z,85.31
2023-01-30T17:46:24.128Z,84.61
2023-01-30T17:48:07.232Z,84.37
2023-01-30T17:49:44.333Z,84.32
2023-01-30T17:51:24.520Z,84.17
2023-01-30T17:53:07.706Z,83.94
2023-01-30T17:54:44.821Z,83.86
2023-01-30T17:56:24.996Z,84.02
2023-01-30T17:58:05.102Z,83.95
2023-01-30T17:59:45.252Z,84.28
2023-01-30T18:01:25.408Z,84.22
2023-01-30T18:03:05.574Z,84.18
2023-01-30T18:04:45.653Z,83.9
2023-01-30T18:06:25.783Z,83.25
2023-01-30T18:08:12.047Z,83.1
2023-01-30T18:09:52.189Z,83.07
2023-01-30T18:11:35.383Z,83.01
2023-01-30T18:13:12.450Z,82.52
2023-01-30T18:14:52.582Z,82.38
2023-01-30T18:16:32.866Z,82.06
2023-01-30T18:18:12.894Z,81.67
2023-01-30T18:19:53.055Z,81.51
2023-01-30T18:21:33.211Z,81.64
2023-01-30T18:23:13.353Z,82.17
2023-01-30T18:24:53.479Z,82.13
2023-01-30T18:26:33.629Z,82.56
2023-01-30T18:28:13.818Z,82.85
2023-01-30T18:29:53.914Z,83
2023-01-30T18:31:34.223Z,83.43
2023-01-30T18:33:14.273Z,83.53
2023-01-30T18:34:54.430Z,83.71
2023-01-30T18:36:34.753Z,83.99
2023-01-30T18:38:14.979Z,84.11
2023-01-30T18:39:55.187Z,84.25
2023-01-30T18:41:35.341Z,84.02
2023-01-30T18:43:18.547Z,84.18
2023-01-30T18:44:55.692Z,84.88
2023-01-30T18:46:35.873Z,86.06
2023-01-30T18:48:15.996Z,87.12
2023-01-30T18:49:56.132Z,87.4
2023-01-30T18:51:36.263Z,87.76
2023-01-30T18:53:16.407Z,87.6
2023-01-30T18:54:56.578Z,88.06
2023-01-30T18:56:39.792Z,88.41
2023-01-30T18:58:16.888Z,88.56
2023-01-30T18:59:57.012Z,89
2023-01-30T19:01:37.203Z,89.27
2023-01-30T19:03:17.290Z,89.22
2023-01-30T19:04:57.428Z,89.42
2023-01-30T19:06:37.653Z,89.4
2023-01-30T19:08:17.771Z,89.63
2023-01-30T19:09:57.895Z,89.54
2023-01-30T19:11:38.034Z,89.6
2023-01-30T19:13:18.170Z,89.36
2023-01-30T19:14:58.282Z,88.95
2023-01-30T19:16:38.409Z,88.75
2023-01-30T19:18:18.586Z,88.71
2023-01-30T19:20:01.780Z,88.91
2023-01-30T19:21:38.826Z,88.74
2023-01-30T19:23:19.031Z,88.47
2023-01-30T19:24:59.259Z,88.27
2023-01-30T19:26:39.432Z,88.3
2023-01-30T19:28:19.541Z,88.06
2023-01-30T19:29:59.765Z,88.13
2023-01-30T19:31:39.927Z,87.85
2023-01-30T19:33:20.084Z,86.88
2023-01-30T19:35:00.235Z,86.88
2023-01-30T19:36:40.356Z,86.48
2023-01-30T19:38:20.551Z,86.58
2023-01-30T19:40:00.686Z,86.14
2023-01-30T19:41:40.848Z,86.06
2023-01-30T19:43:20.965Z,85.86
2023-01-30T19:45:01.182Z,85.8
2023-01-30T19:46:41.376Z,85.93
2023-01-30T19:48:21.462Z,85.91
2023-01-30T19:50:01.627Z,86.05
2023-01-30T19:51:41.817Z,86.52
2023-01-30T19:53:21.943Z,87.09
2023-01-30T19:55:02.114Z,87.7
2023-01-30T19:56:42.235Z,88.35
2023-01-30T19:58:22.394Z,88.89
2023-01-30T20:00:02.555Z,89.45
2023-01-30T20:01:42.678Z,90
2023-01-30T20:03:22.830Z,90.58
2023-01-30T20:05:02.971Z,90.73
2023-01-30T20:06:43.117Z,90.76
2023-01-30T20:08:32.231Z,90.89
2023-01-30T20:10:03.433Z,90.97
2023-01-30T20:11:43.598Z,90.65
2023-01-30T20:13:23.751Z,90.78
2023-01-30T20:15:03.926Z,91.27
2023-01-30T20:16:44.092Z,91.51
2023-01-30T20:18:24.229Z,91.63
2023-01-30T20:20:04.397Z,91.69
2023-01-30T20:21:44.539Z,91.75
2023-01-30T20:23:24.690Z,91.47
2023-01-30T20:25:04.841Z,91.57
2023-01-30T20:26:48.739Z,91.74
2023-01-30T20:28:25.168Z,91.65
2023-01-30T20:30:05.250Z,91.39
2023-01-30T20:31:45.575Z,91.31
2023-01-30T20:33:25.617Z,90.93
2023-01-30T20:35:05.788Z,91.21
2023-01-30T20:36:45.934Z,91.42
2023-01-30T20:38:26.089Z,91.42
2023-01-30T20:40:13.331Z,91.29
2023-01-30T20:41:46.390Z,91.1
2023-01-30T20:43:26.513Z,90.53
2023-01-30T20:45:06.708Z,89.87
2023-01-30T20:46:46.944Z,88.96
2023-01-30T20:48:27.034Z,88.71
2023-01-30T20:50:10.202Z,88.56
2023-01-30T20:51:47.327Z,88.52
2023-01-30T20:53:27.434Z,88.38
2023-01-30T20:55:07.624Z,88.06
2023-01-30T20:56:47.763Z,87.89
2023-01-30T20:58:27.906Z,87.9
2023-01-30T21:00:08.051Z,87.51
2023-01-30T21:01:48.161Z,87.68
2023-01-30T21:03:28.335Z,87.97
2023-01-30T21:05:08.517Z,88.07
2023-01-30T21:06:48.628Z,88.23
2023-01-30T21:08:28.761Z,88.14
2023-01-30T21:10:08.921Z,88.22
2023-01-30T21:11:49.119Z,88.44
2023-01-30T21:13:29.200Z,88.57
2023-01-30T21:15:09.327Z,88.5
2023-01-30T21:16:49.557Z,88.39
2023-01-30T21:18:29.610Z,88.51
2023-01-30T21:20:09.766Z,88.6
2023-01-30T21:21:49.957Z,88.7
2023-01-30T21:23:30.066Z,88.51
2023-01-30T21:25:10.220Z,88.45
2023-01-30T21:26:50.382Z,88.31
2023-01-30T21:28:30.513Z,88.02
2023-01-30T21:30:10.675Z,88.09
2023-01-30T21:31:51.163Z,88.14
2023-01-30T21:33:30.938Z,87.86